»·PEaware :: N24SQ KPMB-KBJC

N24SQ :: KPMB-KBJC

FLIGHT INFORMATION

Flight Status: Arrived
Operator: Privately registered:
United States
More flights under this callsign
Pilot: Gabor H. (24209)
Aircraft: Unknown
(PC24)
More flights by this aircraft type
Origin: KPMB Pembina Mun
United States
Destination: KBJC Jeffco
United States
More flights between these airports :: More routes between these airports
Route: JMS PHP BFF KIPPR5
File this flight plan on PilotEdge
Remarks: PC24 US FERRY FLIGHT LEG6
Altitude:
(Current/Filed)
40,000ft
Speed:
(Current/Filed)
460kts
Departed: 24-Sep-19 11:06 AM
Arrived: 24-Sep-19 12:50 PM
Distance/Time
Traveled:
638nm/1:44
Distance/Time
To Go:
Arrived

Flight Plot

Page will automatically refresh every two minutes.

Flight plan parsing failed; only flown route is shown


Map Options




Map Legend


Flown Route
Filed Route
Departure Airport
Arrival Airport
Navaid (VOR, NDB)
Fix

Horizontal Profiles

Position Reports

Time Latitude Longitude Heading Altitude Ground
Speed
24-Sep-19 10:57 48.949642 -97.239614 88 800ft 0kts
24-Sep-19 10:58 48.949642 -97.239614 88 800ft 0kts
24-Sep-19 10:59 48.949642 -97.239614 88 800ft 0kts
24-Sep-19 11:00 48.949642 -97.239614 88 800ft 0kts
24-Sep-19 11:01 48.949642 -97.239614 88 800ft 0kts
24-Sep-19 11:02 48.949642 -97.239612 88 800ft 0kts
24-Sep-19 11:03 48.948925 -97.240802 246 800ft 13kts
24-Sep-19 11:04 48.947983 -97.243669 168 800ft 7kts
24-Sep-19 11:05 48.909973 -97.229454 198 2833ft 210kts
24-Sep-19 11:06 48.858020 -97.287724 218 6876ft 252kts
24-Sep-19 11:07 48.794825 -97.344251 212 10922ft 287kts
24-Sep-19 11:08 48.714375 -97.405187 209 14496ft 343kts
24-Sep-19 11:09 48.625564 -97.469429 209 17513ft 361kts
24-Sep-19 11:10 48.533418 -97.536065 209 20512ft 375kts
24-Sep-19 11:11 48.437450 -97.605537 209 23521ft 390kts
24-Sep-19 11:12 48.337578 -97.677632 209 26528ft 406kts
24-Sep-19 11:13 48.233642 -97.752377 210 29538ft 422kts
24-Sep-19 11:14 48.126150 -97.829397 210 32537ft 429kts
24-Sep-19 11:15 48.017948 -97.906812 210 35528ft 437kts
24-Sep-19 11:16 47.911330 -97.982810 212 38480ft 426kts
24-Sep-19 11:17 47.804094 -98.059608 211 39667ft 430kts
24-Sep-19 11:18 47.695943 -98.136609 211 39667ft 431kts
24-Sep-19 11:19 47.587729 -98.213234 211 39677ft 431kts
24-Sep-19 11:20 47.479339 -98.289695 211 39685ft 431kts
24-Sep-19 11:21 47.371088 -98.365817 212 39692ft 431kts
24-Sep-19 11:22 47.262816 -98.441792 211 39699ft 432kts
24-Sep-19 11:23 47.154330 -98.517860 212 39703ft 432kts
24-Sep-19 11:25 47.047007 -98.593424 212 39705ft 431kts
24-Sep-19 11:26 46.940183 -98.672828 217 39706ft 427kts
24-Sep-19 11:27 46.841903 -98.769623 221 39707ft 423kts
24-Sep-19 11:28 46.747047 -98.871375 222 39708ft 423kts
24-Sep-19 11:29 46.652780 -98.973953 222 39717ft 423kts
24-Sep-19 11:30 46.558615 -99.076494 222 39726ft 423kts
24-Sep-19 11:31 46.464459 -99.178749 222 39736ft 422kts
24-Sep-19 11:32 46.372366 -99.278414 222 39746ft 422kts
24-Sep-19 11:33 46.278190 -99.379930 222 39754ft 422kts
24-Sep-19 11:34 46.183967 -99.481064 222 39761ft 422kts
24-Sep-19 11:35 46.089703 -99.581803 222 39768ft 422kts
24-Sep-19 11:36 45.995312 -99.682243 222 39773ft 422kts
24-Sep-19 11:37 45.900284 -99.782883 223 39779ft 427kts
24-Sep-19 11:38 45.804385 -99.883978 223 39784ft 428kts
24-Sep-19 11:39 45.708125 -99.984968 223 39789ft 429kts
24-Sep-19 11:40 45.611726 -100.085694 223 39793ft 429kts
24-Sep-19 11:41 45.515134 -100.186228 223 39796ft 430kts
24-Sep-19 11:42 45.418390 -100.286519 223 39797ft 430kts
24-Sep-19 11:43 45.321349 -100.386693 223 39800ft 431kts
24-Sep-19 11:44 45.224193 -100.486569 223 39806ft 432kts
24-Sep-19 11:45 45.126738 -100.586334 223 39814ft 432kts
24-Sep-19 11:45 45.045192 -100.669498 223 39821ft 433kts
24-Sep-19 11:47 44.931225 -100.785249 223 39842ft 434kts
24-Sep-19 11:47 44.849342 -100.868088 223 39849ft 434kts
24-Sep-19 11:48 44.750972 -100.967252 223 39856ft 434kts
24-Sep-19 11:50 44.636166 -101.082536 223 39863ft 435kts
24-Sep-19 11:50 44.553929 -101.164833 223 39869ft 435kts
24-Sep-19 11:51 44.455249 -101.263308 223 39878ft 435kts
24-Sep-19 11:52 44.356788 -101.361340 223 39891ft 435kts
24-Sep-19 11:53 44.258174 -101.459444 223 39900ft 435kts
24-Sep-19 11:54 44.159660 -101.557750 223 39905ft 435kts
24-Sep-19 11:55 44.061124 -101.655822 221 39906ft 437kts
24-Sep-19 11:56 43.957352 -101.745248 219 39907ft 441kts
24-Sep-19 11:57 43.852103 -101.834027 219 39910ft 444kts
24-Sep-19 11:58 43.746482 -101.923962 219 39921ft 445kts
24-Sep-19 11:59 43.641265 -102.014068 219 39932ft 445kts
24-Sep-19 12:00 43.535999 -102.104299 219 39944ft 446kts
24-Sep-19 12:01 43.430550 -102.194508 219 39959ft 447kts
24-Sep-19 12:02 43.324898 -102.284621 219 39975ft 447kts
24-Sep-19 12:03 43.218910 -102.374697 219 39981ft 448kts
24-Sep-19 12:04 43.120662 -102.457891 219 39967ft 450kts
24-Sep-19 12:05 43.014028 -102.547833 218 39966ft 451kts
24-Sep-19 12:06 42.907205 -102.637571 218 39967ft 451kts
24-Sep-19 12:07 42.802490 -102.725221 218 39969ft 451kts
24-Sep-19 12:08 42.695279 -102.814653 218 39969ft 453kts
24-Sep-19 12:09 42.587417 -102.904309 218 39974ft 454kts
24-Sep-19 12:10 42.479751 -102.993487 218 39979ft 454kts
24-Sep-19 12:11 42.371947 -103.082520 218 39986ft 454kts
24-Sep-19 12:12 42.263961 -103.171511 218 39996ft 454kts
24-Sep-19 12:13 42.156001 -103.260393 218 40001ft 455kts
24-Sep-19 12:14 42.056348 -103.342547 218 40007ft 455kts
24-Sep-19 12:15 41.948664 -103.432290 217 40015ft 457kts
24-Sep-19 12:16 41.829101 -103.487207 189 40019ft 480kts
24-Sep-19 12:17 41.694872 -103.488996 183 40002ft 485kts
24-Sep-19 12:18 41.559228 -103.486103 183 38092ft 492kts
24-Sep-19 12:19 41.421926 -103.486330 184 36098ft 492kts
24-Sep-19 12:20 41.284576 -103.489099 184 34103ft 494kts
24-Sep-19 12:21 41.146628 -103.493434 184 32106ft 496kts
24-Sep-19 12:22 41.009172 -103.499215 184 30202ft 493kts
24-Sep-19 12:23 40.874239 -103.524236 198 29223ft 487kts
24-Sep-19 12:24 40.753777 -103.581945 205 26735ft 441kts
24-Sep-19 12:25 40.644157 -103.643934 207 24232ft 417kts
24-Sep-19 12:26 40.552818 -103.727566 227 22002ft 388kts
24-Sep-19 12:27 40.481607 -103.827710 230 20022ft 370kts
24-Sep-19 12:28 40.416041 -103.918143 229 18006ft 318kts
24-Sep-19 12:29 40.366412 -104.003325 252 16966ft 287kts
24-Sep-19 12:30 40.354441 -104.106538 267 16034ft 273kts
24-Sep-19 12:31 40.352747 -104.202637 269 14571ft 256kts
24-Sep-19 12:32 40.352084 -104.294023 269 13957ft 248kts
24-Sep-19 12:33 40.350937 -104.383033 268 13820ft 251kts
24-Sep-19 12:34 40.341812 -104.471438 243 12711ft 249kts
24-Sep-19 12:35 40.306161 -104.545585 238 10726ft 229kts
24-Sep-19 12:36 40.271705 -104.612937 237 9019ft 215kts
24-Sep-19 12:37 40.237815 -104.678391 237 8172ft 219kts
24-Sep-19 12:38 40.205323 -104.741467 238 7961ft 211kts
24-Sep-19 12:39 40.172393 -104.805515 237 7970ft 215kts
24-Sep-19 12:40 40.140193 -104.868180 237 7772ft 221kts
24-Sep-19 12:41 40.107402 -104.933324 238 7485ft 213kts
24-Sep-19 12:42 40.078734 -105.001392 255 7499ft 215kts
24-Sep-19 12:43 40.065653 -105.072522 258 7505ft 194kts
24-Sep-19 12:44 40.052173 -105.140437 257 7504ft 198kts
24-Sep-19 12:45 40.020140 -105.194020 199 7525ft 204kts
24-Sep-19 12:46 39.968570 -105.220268 198 7495ft 192kts
24-Sep-19 12:47 39.943165 -105.189520 107 6422ft 144kts
24-Sep-19 12:48 39.921842 -105.146215 123 5968ft 144kts
24-Sep-19 12:49 39.908365 -105.120401 124 5675ft 13kts
24-Sep-19 12:50 39.906744 -105.119312 304 5675ft 13kts
24-Sep-19 12:51 39.910185 -105.125821 306 5675ft 21kts
24-Sep-19 12:52 39.913016 -105.131212 304 5675ft 11kts
24-Sep-19 12:53 39.913138 -105.132021 217 5675ft 0kts
24-Sep-19 12:54 39.913138 -105.132021 217 5675ft 0kts
24-Sep-19 12:55 39.913138 -105.132021 217 5675ft 0kts
24-Sep-19 12:56 39.913138 -105.132021 217 5675ft 0kts
24-Sep-19 12:57 39.913138 -105.132021 217 5675ft 0kts

Navigation Log

Ident Type
Flight plan parsing failed, navigation log unavailable